Time;durP1;ratioP1;P1;durP2;ratioP2;P2;SDS_P1;SDS_P2;PMS_P1;PMS_P2;Temp;Humidity;BMP_temperature;BMP_pressure;BME280_temperature;BME280_humidity;BME280_pressure;Samples;Min_cycle;Max_cycle;Signal;HPM_P1;HPM_P2
2023/02/07 00:02:12;;;;;;;;;;;;;;;-3.79;83.74;103381.09;111212;1209;97411;-59
2023/02/07 00:04:37;;;;;;;;;;;;;;;-3.80;83.98;103377.67;111357;1211;96231;-60
2023/02/07 00:07:02;;;;;;;;;;;;;;;-3.84;83.76;103379.17;111183;1211;96305;-59
2023/02/07 00:09:27;;;;;;;;;;;;;;;-3.88;83.62;103371.95;111181;1210;96340;-60
2023/02/07 00:11:53;;;;;;;;;;;;;;;-3.91;83.66;103375.46;111226;1209;125438;-60
2023/02/07 00:14:18;;;;;;;;;;;;;;;-3.93;84.13;103373.46;111275;1207;96685;-59
2023/02/07 00:16:43;;;;;;;;;;;;;;;-3.93;84.07;103374.13;111273;1211;96257;-61
2023/02/07 00:19:09;;;;;;;;;;;;;;;-3.95;83.97;103367.02;111203;1209;124565;-60
2023/02/07 00:21:34;;;;;;;;;;;;;;;-3.96;83.66;103360.87;111228;1211;96321;-59
2023/02/07 00:23:59;;;;;;;;;;;;;;;-3.97;83.98;103356.45;111150;1211;124848;-60
2023/02/07 00:26:25;;;;;;;;;;;;;;;-3.99;83.98;103352.14;111218;1207;96762;-59
2023/02/07 00:28:52;;;;;;;;;;;;;;;-4.02;83.82;103347.41;111316;1211;125108;-61
2023/02/07 00:31:20;;;;;;;;;;;;;;;-4.03;84.05;103347.34;111179;1209;107676;-60
2023/02/07 00:33:46;;;;;;;;;;;;;;;-4.04;83.63;103347.45;111231;1212;95831;-60
2023/02/07 00:36:13;;;;;;;;;;;;;;;-4.05;83.81;103342.14;111160;1209;124816;-60
2023/02/07 00:38:38;;;;;;;;;;;;;;;-4.08;83.94;103348.98;111195;1212;96403;-62
2023/02/07 00:41:04;;;;;;;;;;;;;;;-4.09;83.98;103349.06;111222;1209;125465;-62
2023/02/07 00:43:30;;;;;;;;;;;;;;;-4.10;84.18;103347.80;111163;1208;96273;-62
2023/02/07 00:45:59;;;;;;;;;;;;;;;-4.11;84.22;103357.14;111295;1207;95651;-61
2023/02/07 00:48:28;;;;;;;;;;;;;;;-4.14;83.94;103349.11;111185;1211;126164;-63
2023/02/07 00:50:53;;;;;;;;;;;;;;;-4.15;83.98;103341.00;111279;1209;100299;-60
2023/02/07 00:53:19;;;;;;;;;;;;;;;-4.18;84.02;103341.90;111257;1209;96314;-60
2023/02/07 00:55:44;;;;;;;;;;;;;;;-4.20;83.94;103344.00;111311;1209;96718;-60
2023/02/07 00:58:09;;;;;;;;;;;;;;;-4.24;84.09;103343.98;111266;1209;96333;-62
2023/02/07 01:00:34;;;;;;;;;;;;;;;-4.26;84.23;103345.96;111221;1209;125212;-60
2023/02/07 01:02:59;;;;;;;;;;;;;;;-4.28;84.09;103342.35;111306;1208;96445;-61
2023/02/07 01:05:25;;;;;;;;;;;;;;;-4.30;84.28;103343.79;111263;1210;125358;-60
2023/02/07 01:07:50;;;;;;;;;;;;;;;-4.33;84.07;103348.17;111205;1209;98616;-60
2023/02/07 01:10:15;;;;;;;;;;;;;;;-4.33;84.25;103346.61;111235;1208;96212;-61
2023/02/07 01:12:41;;;;;;;;;;;;;;;-4.33;84.24;103351.80;111275;1208;124767;-60
2023/02/07 01:15:06;;;;;;;;;;;;;;;-4.34;84.08;103351.77;111222;1209;96234;-60
2023/02/07 01:17:32;;;;;;;;;;;;;;;-4.32;84.17;103357.09;111184;1208;125300;-61
2023/02/07 01:19:58;;;;;;;;;;;;;;;-4.31;84.55;103354.24;111251;1211;96333;-62
2023/02/07 01:22:24;;;;;;;;;;;;;;;-4.30;84.24;103349.24;111244;1208;96346;-59
2023/02/07 01:24:51;;;;;;;;;;;;;;;-4.28;83.99;103343.20;111384;1210;97724;-62
2023/02/07 01:27:16;;;;;;;;;;;;;;;-4.26;84.41;103347.23;111229;1208;107535;-60
2023/02/07 01:29:41;;;;;;;;;;;;;;;-4.25;84.20;103350.75;111107;1209;125478;-60
2023/02/07 01:32:06;;;;;;;;;;;;;;;-4.24;84.18;103350.79;111298;1209;96320;-60
2023/02/07 01:34:31;;;;;;;;;;;;;;;-4.24;84.31;103353.77;111223;1209;96292;-61
2023/02/07 01:36:57;;;;;;;;;;;;;;;-4.22;84.42;103354.73;111166;1223;126366;-61
2023/02/07 01:39:22;;;;;;;;;;;;;;;-4.19;84.55;103357.36;111235;1207;96569;-61
2023/02/07 01:41:47;;;;;;;;;;;;;;;-4.17;84.34;103354.33;111191;1211;125367;-61
2023/02/07 01:44:38;;;;;;;;;;;;;;;-4.16;84.74;103353.90;111203;1209;96342;-60
2023/02/07 01:47:04;;;;;;;;;;;;;;;-4.14;84.50;103345.11;111223;1211;96286;-60
2023/02/07 01:49:31;;;;;;;;;;;;;;;-4.13;84.47;103343.59;111222;1209;94812;-62
2023/02/07 01:51:59;;;;;;;;;;;;;;;-4.12;84.51;103342.94;111225;1211;96289;-61
2023/02/07 01:54:30;;;;;;;;;;;;;;;-4.13;84.29;103344.48;111130;1208;126010;-61
2023/02/07 01:56:57;;;;;;;;;;;;;;;-4.13;84.46;103345.00;111162;1209;107999;-60
2023/02/07 01:59:24;;;;;;;;;;;;;;;-4.13;84.53;103345.34;111075;1209;125842;-59
2023/02/07 02:01:50;;;;;;;;;;;;;;;-4.14;84.66;103345.43;111236;1209;96365;-61
2023/02/07 02:04:15;;;;;;;;;;;;;;;-4.17;84.49;103339.48;111283;1209;96268;-60
2023/02/07 02:06:40;;;;;;;;;;;;;;;-4.19;84.45;103337.48;111094;1209;125332;-59
2023/02/07 02:09:11;;;;;;;;;;;;;;;-4.19;84.47;103335.33;111276;1209;96331;-61
2023/02/07 02:11:48;;;;;;;;;;;;;;;-4.19;84.69;103345.70;111221;1209;126559;-60
2023/02/07 02:14:27;;;;;;;;;;;;;;;-4.18;84.62;103345.05;111116;1208;110250;-60
2023/02/07 02:16:56;;;;;;;;;;;;;;;-4.16;84.62;103344.77;111205;1209;101119;-62
2023/02/07 02:19:35;;;;;;;;;;;;;;;-4.16;84.76;103347.58;111250;1209;108271;-59
2023/02/07 02:22:09;;;;;;;;;;;;;;;-4.17;84.67;103345.45;111290;1227;96164;-60
2023/02/07 02:24:54;;;;;;;;;;;;;;;-4.19;84.80;103348.80;111164;1212;127252;-62
2023/02/07 02:27:28;;;;;;;;;;;;;;;-4.20;84.62;103348.91;111143;1209;110393;-59
2023/02/07 02:29:53;;;;;;;;;;;;;;;-4.20;84.53;103345.95;111166;1211;126172;-60
2023/02/07 02:32:21;;;;;;;;;;;;;;;-4.19;84.66;103344.13;111219;1209;94710;-61
2023/02/07 02:34:52;;;;;;;;;;;;;;;-4.20;84.65;103343.33;111271;1210;97755;-60
2023/02/07 02:37:33;;;;;;;;;;;;;;;-4.22;84.75;103341.27;111283;1208;96274;-62
2023/02/07 02:40:05;;;;;;;;;;;;;;;-4.25;84.79;103341.99;111232;1210;109251;-60
2023/02/07 02:42:33;;;;;;;;;;;;;;;-4.27;84.59;103344.67;111169;1208;125406;-59
2023/02/07 02:45:01;;;;;;;;;;;;;;;-4.30;84.90;103344.50;111236;1207;107587;-59
2023/02/07 02:47:28;;;;;;;;;;;;;;;-4.32;84.44;103346.66;111077;1209;125806;-59
2023/02/07 02:49:53;;;;;;;;;;;;;;;-4.34;84.81;103352.29;111233;1211;96424;-62
2023/02/07 02:52:18;;;;;;;;;;;;;;;-4.36;84.75;103349.55;111204;1209;97745;-60
2023/02/07 02:54:43;;;;;;;;;;;;;;;-4.39;84.57;103346.90;111220;1209;124857;-61
2023/02/07 02:57:35;;;;;;;;;;;;;;;-4.43;84.68;103340.05;111268;1209;96286;-61
2023/02/07 03:00:00;;;;;;;;;;;;;;;-4.46;84.84;103334.63;111017;1209;124888;-61
2023/02/07 03:02:39;;;;;;;;;;;;;;;-4.48;84.60;103331.20;111229;1210;96381;-61
2023/02/07 03:05:04;;;;;;;;;;;;;;;-4.49;84.82;103335.29;111277;1211;100037;-60
2023/02/07 03:07:33;;;;;;;;;;;;;;;-4.51;84.85;103344.10;111176;1211;96412;-61
2023/02/07 03:10:06;;;;;;;;;;;;;;;-4.52;84.66;103343.84;111216;1209;96211;-60
2023/02/07 03:12:31;;;;;;;;;;;;;;;-4.53;84.86;103345.68;111110;1208;124572;-61
2023/02/07 03:14:57;;;;;;;;;;;;;;;-4.57;84.56;103338.85;111208;1211;96330;-61
2023/02/07 03:17:27;;;;;;;;;;;;;;;-4.59;84.98;103333.64;111215;1209;125409;-61
2023/02/07 03:19:56;;;;;;;;;;;;;;;-4.61;84.74;103331.77;111198;1210;96333;-59
2023/02/07 03:22:23;;;;;;;;;;;;;;;-4.64;84.81;103334.08;111220;1209;96169;-60
2023/02/07 03:24:54;;;;;;;;;;;;;;;-4.66;84.84;103337.23;111076;1211;125339;-61
2023/02/07 03:27:21;;;;;;;;;;;;;;;-4.65;84.74;103337.46;111219;1209;99265;-61
2023/02/07 03:29:48;;;;;;;;;;;;;;;-4.65;84.91;103336.27;111051;1212;125659;-61
2023/02/07 03:32:15;;;;;;;;;;;;;;;-4.62;84.88;103333.66;111187;1211;96209;-61
2023/02/07 03:35:01;;;;;;;;;;;;;;;-4.61;84.98;103334.55;111194;1209;96919;-61
2023/02/07 03:37:43;;;;;;;;;;;;;;;-4.61;85.04;103328.82;111045;1209;109433;-61
2023/02/07 03:40:09;;;;;;;;;;;;;;;-4.60;85.03;103321.02;111197;1209;99796;-61
2023/02/07 03:42:37;;;;;;;;;;;;;;;-4.56;85.27;103319.54;111050;1223;125294;-62
2023/02/07 03:45:04;;;;;;;;;;;;;;;-4.55;85.07;103321.85;111172;1209;96686;-61
2023/02/07 03:47:29;;;;;;;;;;;;;;;-4.54;85.24;103327.65;111096;1209;125364;-61
2023/02/07 03:49:55;;;;;;;;;;;;;;;-4.55;85.15;103321.16;111310;1209;96205;-62
2023/02/07 03:52:20;;;;;;;;;;;;;;;-4.54;85.29;103320.53;111211;1209;96353;-61
2023/02/07 03:54:45;;;;;;;;;;;;;;;-4.54;85.29;103321.23;111094;1211;125790;-61
2023/02/07 03:57:11;;;;;;;;;;;;;;;-4.52;85.21;103325.48;111210;1210;96289;-60
2023/02/07 03:59:36;;;;;;;;;;;;;;;-4.53;85.29;103327.91;111114;1209;124740;-60
2023/02/07 04:02:01;;;;;;;;;;;;;;;-4.52;84.97;103336.35;111279;1209;96363;-61
2023/02/07 04:04:27;;;;;;;;;;;;;;;-4.52;85.45;103335.79;111243;1212;94029;-59
2023/02/07 04:06:52;;;;;;;;;;;;;;;-4.55;85.26;103330.40;111213;1208;96297;-61
2023/02/07 04:09:17;;;;;;;;;;;;;;;-4.59;85.15;103322.69;111257;1209;96648;-60
2023/02/07 04:11:42;;;;;;;;;;;;;;;-4.60;85.21;103323.46;111101;1209;124896;-61
2023/02/07 04:14:07;;;;;;;;;;;;;;;-4.61;84.99;103324.27;111287;1209;95151;-60
2023/02/07 04:16:33;;;;;;;;;;;;;;;-4.61;84.99;103326.05;111169;1209;97792;-61
2023/02/07 04:18:58;;;;;;;;;;;;;;;-4.60;85.20;103326.62;111177;1209;126159;-61
2023/02/07 04:21:24;;;;;;;;;;;;;;;-4.59;85.17;103328.61;111205;1209;96233;-59
2023/02/07 04:23:49;;;;;;;;;;;;;;;-4.58;85.42;103322.23;111031;1208;125429;-60
2023/02/07 04:26:14;;;;;;;;;;;;;;;-4.56;85.27;103316.39;111232;1209;96292;-60
2023/02/07 04:28:39;;;;;;;;;;;;;;;-4.53;85.27;103313.77;111186;1212;94059;-60
2023/02/07 04:31:05;;;;;;;;;;;;;;;-4.52;85.46;103317.86;111140;1209;124404;-59
2023/02/07 04:33:30;;;;;;;;;;;;;;;-4.48;85.24;103311.80;111102;1212;96250;-59
2023/02/07 04:36:00;;;;;;;;;;;;;;;-4.45;85.31;103312.52;111145;1211;126610;-60
2023/02/07 04:38:26;;;;;;;;;;;;;;;-4.43;85.46;103315.42;111205;1211;96347;-63
2023/02/07 04:40:51;;;;;;;;;;;;;;;-4.41;85.17;103316.77;111110;1209;124901;-60
2023/02/07 04:43:17;;;;;;;;;;;;;;;-4.39;85.29;103313.20;111189;1213;96353;-60
2023/02/07 04:45:44;;;;;;;;;;;;;;;-4.36;85.41;103314.47;111182;1209;96236;-59
2023/02/07 04:48:09;;;;;;;;;;;;;;;-4.34;85.53;103305.34;111025;1212;126720;-60
2023/02/07 04:50:35;;;;;;;;;;;;;;;-4.31;85.41;103304.32;111291;1209;96274;-60
2023/02/07 04:53:00;;;;;;;;;;;;;;;-4.28;85.38;103302.91;111053;1209;125570;-61
2023/02/07 04:55:25;;;;;;;;;;;;;;;-4.24;85.48;103305.38;111200;1211;96313;-60
2023/02/07 04:57:50;;;;;;;;;;;;;;;-4.22;85.31;103300.96;111255;1209;96352;-59
2023/02/07 05:00:16;;;;;;;;;;;;;;;-4.21;85.49;103305.77;111060;1211;125371;-61
2023/02/07 05:02:43;;;;;;;;;;;;;;;-4.19;85.60;103304.45;111269;1209;96269;-60
2023/02/07 05:05:08;;;;;;;;;;;;;;;-4.18;85.36;103307.48;111105;1209;125258;-60
2023/02/07 05:07:33;;;;;;;;;;;;;;;-4.15;85.64;103310.29;111156;1210;96240;-60
2023/02/07 05:09:59;;;;;;;;;;;;;;;-4.13;85.46;103309.55;111272;1208;96298;-60
2023/02/07 05:12:24;;;;;;;;;;;;;;;-4.12;85.67;103309.27;111041;1209;124740;-62
2023/02/07 05:14:49;;;;;;;;;;;;;;;-4.09;85.58;103308.38;111242;1209;96841;-62
2023/02/07 05:17:14;;;;;;;;;;;;;;;-4.05;85.74;103305.64;111068;1211;125459;-60
2023/02/07 05:19:39;;;;;;;;;;;;;;;-4.03;85.83;103305.42;111257;1211;95068;-60
2023/02/07 05:22:05;;;;;;;;;;;;;;;-3.99;85.83;103311.44;111205;1209;96214;-60
2023/02/07 05:24:30;;;;;;;;;;;;;;;-3.96;85.91;103314.77;111148;1212;125161;-59
2023/02/07 05:26:55;;;;;;;;;;;;;;;-3.91;85.57;103316.95;111278;1208;96244;-60
2023/02/07 05:29:20;;;;;;;;;;;;;;;-3.89;85.61;103314.12;111192;1209;96652;-62
2023/02/07 05:34:29;;;;;;;;;;;;;;;-3.82;86.13;103312.93;111192;1209;99676;-61
2023/02/07 05:36:55;;;;;;;;;;;;;;;-3.78;85.83;103317.04;111186;1208;96925;-61
2023/02/07 05:39:20;;;;;;;;;;;;;;;-3.71;86.06;103320.75;111262;1212;94953;-60
2023/02/07 05:41:46;;;;;;;;;;;;;;;-3.68;85.90;103320.60;111129;1210;124588;-61
2023/02/07 05:44:11;;;;;;;;;;;;;;;-3.65;85.71;103320.39;111268;1212;95565;-62
2023/02/07 05:46:36;;;;;;;;;;;;;;;-3.63;85.92;103329.42;111198;1211;97770;-62
2023/02/07 05:49:02;;;;;;;;;;;;;;;-3.62;85.77;103334.73;111120;1209;124999;-62
2023/02/07 05:51:27;;;;;;;;;;;;;;;-3.60;85.71;103334.50;111273;1211;97997;-60
2023/02/07 05:53:53;;;;;;;;;;;;;;;-3.58;85.75;103334.77;111035;1209;124905;-60
2023/02/07 05:56:18;;;;;;;;;;;;;;;-3.55;86.02;103332.48;111291;1211;97685;-61
2023/02/07 05:58:43;;;;;;;;;;;;;;;-3.53;85.77;103335.91;111229;1209;98001;-60
2023/02/07 06:01:08;;;;;;;;;;;;;;;-3.52;85.96;103340.15;111047;1209;125165;-60
2023/02/07 06:03:33;;;;;;;;;;;;;;;-3.48;86.03;103342.30;111183;1209;97778;-61
2023/02/07 06:05:59;;;;;;;;;;;;;;;-3.45;86.10;103333.59;111136;1211;96885;-62
2023/02/07 06:08:24;;;;;;;;;;;;;;;-3.43;86.04;103334.08;111226;1211;97694;-62
2023/02/07 06:10:49;;;;;;;;;;;;;;;-3.43;85.79;103331.10;110995;1209;126211;-61
2023/02/07 06:13:14;;;;;;;;;;;;;;;-3.41;85.99;103327.16;111257;1211;97663;-60
2023/02/07 06:15:39;;;;;;;;;;;;;;;-3.38;85.89;103323.30;111190;1209;97603;-60
2023/02/07 06:18:05;;;;;;;;;;;;;;;-3.36;85.91;103329.73;111106;1211;126125;-61
2023/02/07 06:20:30;;;;;;;;;;;;;;;-3.34;86.02;103331.45;111197;1209;97562;-60
2023/02/07 06:22:55;;;;;;;;;;;;;;;-3.30;85.92;103330.25;111040;1211;125628;-61
2023/02/07 06:25:21;;;;;;;;;;;;;;;-3.27;86.01;103327.12;111200;1210;97642;-61
2023/02/07 06:27:46;;;;;;;;;;;;;;;-3.21;85.72;103331.24;111193;1211;97769;-63
2023/02/07 06:30:11;;;;;;;;;;;;;;;-3.19;85.85;103333.84;111100;1209;125290;-62
2023/02/07 06:32:37;;;;;;;;;;;;;;;-3.15;86.08;103337.07;111259;1211;111587;-62
2023/02/07 06:35:03;;;;;;;;;;;;;;;-3.11;86.10;103339.01;111171;1211;97654;-62
2023/02/07 06:37:28;;;;;;;;;;;;;;;-3.07;85.84;103337.47;111175;1210;98900;-62
2023/02/07 06:39:54;;;;;;;;;;;;;;;-3.04;85.96;103336.95;111194;1211;97676;-60
2023/02/07 06:42:20;;;;;;;;;;;;;;;-3.01;86.04;103338.17;111062;1211;125828;-62
2023/02/07 06:44:45;;;;;;;;;;;;;;;-2.99;85.95;103336.52;111243;1207;97679;-60
2023/02/07 06:47:10;;;;;;;;;;;;;;;-2.97;85.91;103338.60;111142;1208;126377;-60
2023/02/07 06:49:35;;;;;;;;;;;;;;;-2.93;86.29;103343.65;111322;1209;98179;-60
2023/02/07 06:52:01;;;;;;;;;;;;;;;-2.91;86.07;103342.38;111231;1209;97636;-60
2023/02/07 06:54:26;;;;;;;;;;;;;;;-2.89;85.98;103351.42;111079;1209;124703;-60
2023/02/07 06:56:51;;;;;;;;;;;;;;;-2.87;86.09;103355.36;111262;1212;97555;-61
2023/02/07 06:59:16;;;;;;;;;;;;;;;-2.83;85.97;103356.97;111090;1209;125371;-61
2023/02/07 07:01:41;;;;;;;;;;;;;;;-2.79;85.90;103356.68;111186;1211;97675;-61
2023/02/07 07:04:07;;;;;;;;;;;;;;;-2.75;85.94;103353.75;111193;1209;99196;-60
2023/02/07 07:06:32;;;;;;;;;;;;;;;-2.74;85.85;103353.14;111187;1211;97619;-61
2023/02/07 07:08:57;;;;;;;;;;;;;;;-2.72;85.88;103352.36;111213;1211;100120;-61
2023/02/07 07:11:23;;;;;;;;;;;;;;;-2.72;85.73;103344.84;111001;1207;128241;-60
2023/02/07 07:13:48;;;;;;;;;;;;;;;-2.71;86.04;103337.90;111223;1211;97584;-63
2023/02/07 07:16:14;;;;;;;;;;;;;;;-2.69;85.81;103335.18;111177;1209;96165;-62
2023/02/07 07:18:39;;;;;;;;;;;;;;;-2.67;86.24;103329.91;111159;1211;125241;-61
2023/02/07 07:21:06;;;;;;;;;;;;;;;-2.64;86.00;103324.45;111192;1212;97681;-61
2023/02/07 07:23:31;;;;;;;;;;;;;;;-2.65;86.04;103314.08;111102;1210;125882;-61
2023/02/07 07:25:56;;;;;;;;;;;;;;;-2.62;86.17;103307.39;111247;1209;97678;-61
2023/02/07 07:28:21;;;;;;;;;;;;;;;-2.57;85.99;103310.06;111140;1211;106414;-61
2023/02/07 07:30:46;;;;;;;;;;;;;;;-2.56;86.08;103310.84;111016;1209;126031;-60
2023/02/07 07:33:12;;;;;;;;;;;;;;;-2.53;85.90;103316.73;111263;1209;95187;-61
2023/02/07 07:35:37;;;;;;;;;;;;;;;-2.52;85.93;103319.45;111215;1209;97669;-62
2023/02/07 07:38:02;;;;;;;;;;;;;;;-2.48;86.08;103314.20;111243;1209;97725;-62
2023/02/07 07:40:27;;;;;;;;;;;;;;;-2.44;86.09;103316.00;111191;1210;97593;-60
2023/02/07 07:42:53;;;;;;;;;;;;;;;-2.41;86.13;103317.20;111167;1212;126495;-61
2023/02/07 07:45:18;;;;;;;;;;;;;;;-2.38;86.17;103321.59;111149;1209;106963;-61
2023/02/07 07:47:44;;;;;;;;;;;;;;;-2.35;86.08;103329.98;111090;1209;125118;-61
2023/02/07 07:50:09;;;;;;;;;;;;;;;-2.33;86.19;103333.27;111258;1212;97572;-61
2023/02/07 07:52:35;;;;;;;;;;;;;;;-2.27;86.39;103332.84;111190;1209;97662;-61
2023/02/07 07:55:00;;;;;;;;;;;;;;;-2.24;86.19;103328.23;111108;1209;125538;-61
2023/02/07 07:57:27;;;;;;;;;;;;;;;-2.19;86.25;103323.93;111244;1209;98851;-61
2023/02/07 07:59:52;;;;;;;;;;;;;;;-2.16;86.34;103325.34;111132;1209;124689;-61
2023/02/07 08:02:18;;;;;;;;;;;;;;;-2.12;86.27;103323.98;111166;1209;97562;-61
2023/02/07 08:04:43;;;;;;;;;;;;;;;-2.11;86.22;103329.48;111193;1211;97709;-61
2023/02/07 08:07:08;;;;;;;;;;;;;;;-2.09;86.24;103331.16;111199;1209;97565;-62
2023/02/07 08:09:33;;;;;;;;;;;;;;;-2.05;86.47;103335.05;111203;1209;98103;-63
2023/02/07 08:11:58;;;;;;;;;;;;;;;-2.00;86.27;103338.29;111039;1209;124608;-62
2023/02/07 08:14:23;;;;;;;;;;;;;;;-1.98;86.40;103334.00;111218;1211;97758;-63
2023/02/07 08:16:49;;;;;;;;;;;;;;;-1.97;86.16;103338.09;111052;1209;125266;-62
2023/02/07 08:19:14;;;;;;;;;;;;;;;-1.92;86.30;103339.54;111184;1209;97580;-61
2023/02/07 08:21:39;;;;;;;;;;;;;;;-1.86;86.05;103342.64;111173;1211;97668;-61
2023/02/07 08:24:04;;;;;;;;;;;;;;;-1.80;86.45;103343.65;111064;1209;126326;-63
2023/02/07 08:26:30;;;;;;;;;;;;;;;-1.74;86.30;103346.59;111219;1211;98100;-62
2023/02/07 08:28:55;;;;;;;;;;;;;;;-1.73;86.28;103347.35;111004;1207;126269;-61
2023/02/07 08:31:20;;;;;;;;;;;;;;;-1.73;86.20;103348.06;111243;1209;97652;-60
2023/02/07 08:33:45;;;;;;;;;;;;;;;-1.73;86.31;103348.59;111193;1209;97681;-61
2023/02/07 08:36:11;;;;;;;;;;;;;;;-1.72;86.15;103351.77;111134;1209;99978;-60
2023/02/07 08:38:37;;;;;;;;;;;;;;;-1.70;85.95;103355.20;111234;1211;97673;-61
2023/02/07 08:41:03;;;;;;;;;;;;;;;-1.66;86.30;103361.55;111143;1209;125951;-61
2023/02/07 08:43:28;;;;;;;;;;;;;;;-1.63;86.13;103369.06;111206;1211;97571;-60
2023/02/07 08:45:53;;;;;;;;;;;;;;;-1.60;86.50;103365.17;111321;1209;97572;-61
2023/02/07 08:48:18;;;;;;;;;;;;;;;-1.57;86.43;103368.31;111118;1209;125330;-62
2023/02/07 08:50:43;;;;;;;;;;;;;;;-1.54;86.13;103365.79;111257;1209;97706;-61
2023/02/07 08:53:09;;;;;;;;;;;;;;;-1.52;86.13;103365.20;111139;1209;125394;-61
2023/02/07 08:55:34;;;;;;;;;;;;;;;-1.50;86.38;103366.55;111268;1209;97574;-61
2023/02/07 08:58:00;;;;;;;;;;;;;;;-1.48;86.30;103363.17;111211;1211;97620;-61
2023/02/07 09:00:25;;;;;;;;;;;;;;;-1.45;86.44;103362.05;111082;1209;124875;-61
2023/02/07 09:02:50;;;;;;;;;;;;;;;-1.42;86.36;103358.52;111301;1211;97763;-61
2023/02/07 09:05:15;;;;;;;;;;;;;;;-1.40;86.31;103364.08;111109;1209;125358;-61
2023/02/07 09:07:41;;;;;;;;;;;;;;;-1.37;86.41;103361.59;111298;1211;97677;-62
2023/02/07 09:10:07;;;;;;;;;;;;;;;-1.32;86.51;103362.88;111237;1209;96171;-61
2023/02/07 09:12:33;;;;;;;;;;;;;;;-1.30;86.38;103366.28;111185;1209;125058;-60
2023/02/07 09:14:58;;;;;;;;;;;;;;;-1.32;86.34;103370.23;111279;1211;97671;-61
2023/02/07 09:17:23;;;;;;;;;;;;;;;-1.35;86.31;103374.32;111053;1211;124821;-61
2023/02/07 09:19:48;;;;;;;;;;;;;;;-1.34;86.54;103380.70;111270;1211;98026;-61
2023/02/07 09:22:14;;;;;;;;;;;;;;;-1.32;86.39;103384.10;111108;1211;97673;-61
2023/02/07 09:24:39;;;;;;;;;;;;;;;-1.28;86.62;103388.17;111069;1209;125790;-61
2023/02/07 09:27:04;;;;;;;;;;;;;;;-1.24;86.58;103390.48;111256;1211;97645;-61
2023/02/07 09:29:29;;;;;;;;;;;;;;;-1.19;86.50;103391.21;111015;1209;125752;-62
2023/02/07 09:31:54;;;;;;;;;;;;;;;-1.15;86.65;103391.24;111186;1211;97747;-61
2023/02/07 09:34:20;;;;;;;;;;;;;;;-1.13;86.50;103386.82;111176;1209;97673;-61
2023/02/07 09:36:45;;;;;;;;;;;;;;;-1.11;86.48;103389.49;111263;1209;98024;-61
2023/02/07 09:39:10;;;;;;;;;;;;;;;-1.12;86.45;103394.21;111180;1209;97686;-61
2023/02/07 09:41:55;;;;;;;;;;;;;;;-1.15;86.49;103396.19;111083;1209;126366;-60
2023/02/07 09:44:39;;;;;;;;;;;;;;;-1.10;86.77;103398.34;111170;1211;110796;-62
2023/02/07 09:47:09;;;;;;;;;;;;;;;-1.05;86.70;103400.34;111076;1212;125755;-62
2023/02/07 09:49:37;;;;;;;;;;;;;;;-1.04;86.58;103397.58;111196;1211;108401;-61
2023/02/07 09:52:04;;;;;;;;;;;;;;;-1.01;86.63;103399.82;111243;1209;97594;-62
2023/02/07 09:54:36;;;;;;;;;;;;;;;-0.99;86.55;103397.14;111231;1211;97735;-62
2023/02/07 09:57:05;;;;;;;;;;;;;;;-1.01;86.53;103396.84;111276;1209;112062;-61
2023/02/07 09:59:37;;;;;;;;;;;;;;;-1.04;86.43;103398.64;111062;1209;125553;-61
2023/02/07 10:02:04;;;;;;;;;;;;;;;-1.03;86.57;103400.98;111154;1208;106729;-62
2023/02/07 10:04:35;;;;;;;;;;;;;;;-1.02;86.60;103401.37;111169;1211;97704;-62
2023/02/07 10:07:03;;;;;;;;;;;;;;;-0.98;86.41;103397.50;111200;1211;97581;-61
2023/02/07 10:09:32;;;;;;;;;;;;;;;-0.96;86.60;103400.95;111170;1208;111420;-61
2023/02/07 10:12:12;;;;;;;;;;;;;;;-1.02;86.35;103397.50;111082;1211;126067;-61
2023/02/07 10:14:37;;;;;;;;;;;;;;;-1.07;86.51;103400.58;111163;1212;107871;-62
2023/02/07 10:17:28;;;;;;;;;;;;;;;-1.09;86.36;103401.02;111091;1211;125046;-62
2023/02/07 10:20:12;;;;;;;;;;;;;;;-1.15;86.31;103403.35;111109;1215;97745;-61
2023/02/07 10:22:47;;;;;;;;;;;;;;;-1.15;86.35;103394.60;111193;1211;111200;-62
2023/02/07 10:25:13;;;;;;;;;;;;;;;-1.13;86.42;103398.52;111080;1209;125926;-61
2023/02/07 10:27:41;;;;;;;;;;;;;;;-1.11;86.52;103395.14;111194;1209;97603;-61
2023/02/07 10:30:09;;;;;;;;;;;;;;;-1.11;86.33;103393.75;111148;1211;125236;-62
2023/02/07 10:32:37;;;;;;;;;;;;;;;-1.07;86.33;103390.58;111186;1211;97677;-61
2023/02/07 10:35:13;;;;;;;;;;;;;;;-1.01;86.65;103389.29;111199;1212;97758;-61
2023/02/07 10:37:40;;;;;;;;;;;;;;;-0.98;86.42;103386.64;111224;1211;100143;-63
2023/02/07 10:40:05;;;;;;;;;;;;;;;-0.90;86.56;103379.29;111297;1209;97549;-61
2023/02/07 10:42:33;;;;;;;;;;;;;;;-0.88;86.36;103378.85;111163;1211;125478;-61
2023/02/07 10:44:58;;;;;;;;;;;;;;;-0.89;86.33;103381.81;111324;1209;95128;-61
2023/02/07 10:47:25;;;;;;;;;;;;;;;-0.94;86.45;103383.30;111143;1211;125529;-60
2023/02/07 10:49:50;;;;;;;;;;;;;;;-0.95;86.39;103383.59;111210;1210;97581;-61
2023/02/07 10:52:28;;;;;;;;;;;;;;;-0.88;86.52;103378.35;111192;1211;97628;-62
2023/02/07 10:54:57;;;;;;;;;;;;;;;-0.83;86.43;103376.13;111110;1209;124592;-61
2023/02/07 10:57:23;;;;;;;;;;;;;;;-0.78;86.47;103364.60;111219;1212;111506;-61
2023/02/07 10:59:55;;;;;;;;;;;;;;;-0.72;86.58;103363.98;111155;1211;125520;-61
2023/02/07 11:02:27;;;;;;;;;;;;;;;-0.63;86.58;103364.56;111225;1212;107926;-61
2023/02/07 11:04:52;;;;;;;;;;;;;;;-0.65;86.29;103355.20;111162;1209;126435;-61
2023/02/07 11:07:20;;;;;;;;;;;;;;;-0.71;86.33;103351.74;111253;1209;97620;-60
2023/02/07 11:09:45;;;;;;;;;;;;;;;-0.70;86.34;103342.48;111342;1209;96211;-61
2023/02/07 11:12:15;;;;;;;;;;;;;;;-0.67;86.51;103343.31;111173;1207;125868;-61
2023/02/07 11:14:57;;;;;;;;;;;;;;;-0.64;86.52;103338.54;111280;1212;97646;-61
2023/02/07 11:17:22;;;;;;;;;;;;;;;-0.54;86.58;103345.65;111180;1211;125913;-61
2023/02/07 11:19:47;;;;;;;;;;;;;;;-0.47;86.56;103338.80;111278;1210;97568;-61
2023/02/07 11:22:23;;;;;;;;;;;;;;;-0.40;86.50;103331.38;111309;1221;97642;-62
2023/02/07 11:24:51;;;;;;;;;;;;;;;-0.38;86.63;103324.08;111246;1212;126579;-61
2023/02/07 11:27:21;;;;;;;;;;;;;;;-0.33;86.45;103318.68;111273;1211;97639;-61
2023/02/07 11:29:57;;;;;;;;;;;;;;;-0.33;86.31;103316.60;111244;1211;126005;-61
2023/02/07 11:32:24;;;;;;;;;;;;;;;-0.37;86.26;103317.63;111163;1212;99312;-61
2023/02/07 11:34:56;;;;;;;;;;;;;;;-0.37;86.38;103322.93;111221;1212;97766;-62
2023/02/07 11:37:25;;;;;;;;;;;;;;;-0.38;86.40;103323.04;111130;1212;99258;-62
2023/02/07 11:39:52;;;;;;;;;;;;;;;-0.37;86.39;103320.29;111226;1211;97678;-62
2023/02/07 11:42:18;;;;;;;;;;;;;;;-0.40;86.30;103316.97;111105;1210;124825;-61
2023/02/07 11:44:44;;;;;;;;;;;;;;;-0.37;86.38;103311.30;111273;1212;97669;-62
2023/02/07 11:47:15;;;;;;;;;;;;;;;-0.29;86.43;103310.06;111067;1212;125398;-61
2023/02/07 11:49:40;;;;;;;;;;;;;;;-0.25;86.30;103312.38;111229;1209;98833;-60
2023/02/07 11:52:06;;;;;;;;;;;;;;;-0.20;86.20;103309.06;111214;1211;97626;-62
2023/02/07 11:54:32;;;;;;;;;;;;;;;-0.23;86.17;103304.52;111135;1212;124778;-63
2023/02/07 11:57:11;;;;;;;;;;;;;;;-0.24;86.13;103307.11;111184;1212;97687;-62
2023/02/07 11:59:44;;;;;;;;;;;;;;;-0.23;86.26;103305.41;111099;1210;126490;-61
2023/02/07 12:02:18;;;;;;;;;;;;;;;-0.19;86.34;103300.48;111222;1211;96199;-61
2023/02/07 12:04:44;;;;;;;;;;;;;;;-0.13;86.18;103296.02;111323;1211;110811;-61
2023/02/07 12:07:17;;;;;;;;;;;;;;;-0.10;86.33;103291.58;111295;1209;96675;-62
2023/02/07 12:09:45;;;;;;;;;;;;;;;-0.14;85.95;103292.46;111287;1211;106050;-62
2023/02/07 12:12:34;;;;;;;;;;;;;;;-0.16;85.84;103292.91;111172;1211;124900;-61
2023/02/07 12:15:03;;;;;;;;;;;;;;;-0.13;86.07;103294.98;111208;1209;97593;-61
2023/02/07 12:17:38;;;;;;;;;;;;;;;-0.12;86.09;103299.04;111134;1211;126341;-61
2023/02/07 12:20:08;;;;;;;;;;;;;;;-0.09;85.93;103296.70;111229;1210;99490;-62
2023/02/07 12:22:37;;;;;;;;;;;;;;;-0.11;85.92;103294.69;111167;1209;108038;-62
2023/02/07 12:25:10;;;;;;;;;;;;;;;-0.06;85.84;103289.11;111094;1208;124900;-63
2023/02/07 12:27:43;;;;;;;;;;;;;;;-0.01;85.88;103295.30;111393;1208;97676;-62